sensor_id;sensor_type;location;lat;lon;timestamp;temperature;humidity
3734;HTU21D;1882;52.256;8.874;2024-03-08T00:00:01;1.20;99.90
3734;HTU21D;1882;52.256;8.874;2024-03-08T00:02:37;1.20;99.90
3734;HTU21D;1882;52.256;8.874;2024-03-08T00:05:06;1.20;99.90
3734;HTU21D;1882;52.256;8.874;2024-03-08T00:07:33;1.10;99.90
3734;HTU21D;1882;52.256;8.874;2024-03-08T00:10:00;1.10;99.90
3734;HTU21D;1882;52.256;8.874;2024-03-08T00:12:27;1.10;99.90
3734;HTU21D;1882;52.256;8.874;2024-03-08T00:14:54;1.10;99.90
3734;HTU21D;1882;52.256;8.874;2024-03-08T00:17:21;1.10;99.90
3734;HTU21D;1882;52.256;8.874;2024-03-08T00:19:51;1.10;99.90
3734;HTU21D;1882;52.256;8.874;2024-03-08T00:22:19;1.10;99.90
3734;HTU21D;1882;52.256;8.874;2024-03-08T00:24:46;1.10;99.90
3734;HTU21D;1882;52.256;8.874;2024-03-08T00:27:12;1.00;99.90
3734;HTU21D;1882;52.256;8.874;2024-03-08T00:29:39;1.00;99.90
3734;HTU21D;1882;52.256;8.874;2024-03-08T00:32:06;1.00;99.90
3734;HTU21D;1882;52.256;8.874;2024-03-08T00:34:37;0.90;99.90
3734;HTU21D;1882;52.256;8.874;2024-03-08T00:37:04;0.90;99.90
3734;HTU21D;1882;52.256;8.874;2024-03-08T00:39:31;0.90;99.90
3734;HTU21D;1882;52.256;8.874;2024-03-08T00:41:58;0.90;99.90
3734;HTU21D;1882;52.256;8.874;2024-03-08T00:44:25;0.90;99.90
3734;HTU21D;1882;52.256;8.874;2024-03-08T00:46:52;0.90;99.90
3734;HTU21D;1882;52.256;8.874;2024-03-08T00:49:21;0.80;99.90
3734;HTU21D;1882;52.256;8.874;2024-03-08T00:51:49;0.90;99.90
3734;HTU21D;1882;52.256;8.874;2024-03-08T00:54:16;0.80;99.90
3734;HTU21D;1882;52.256;8.874;2024-03-08T00:56:43;0.80;99.90
3734;HTU21D;1882;52.256;8.874;2024-03-08T00:59:12;0.80;99.90
3734;HTU21D;1882;52.256;8.874;2024-03-08T01:01:41;0.80;99.90
3734;HTU21D;1882;52.256;8.874;2024-03-08T01:04:07;0.80;99.90
3734;HTU21D;1882;52.256;8.874;2024-03-08T01:06:34;0.80;99.90
3734;HTU21D;1882;52.256;8.874;2024-03-08T01:09:01;0.80;99.90
3734;HTU21D;1882;52.256;8.874;2024-03-08T01:11:28;0.80;99.90
3734;HTU21D;1882;52.256;8.874;2024-03-08T01:13:55;0.70;99.90
3734;HTU21D;1882;52.256;8.874;2024-03-08T01:16:22;0.70;99.90
3734;HTU21D;1882;52.256;8.874;2024-03-08T01:18:49;0.70;99.90
3734;HTU21D;1882;52.256;8.874;2024-03-08T01:21:17;0.60;99.90
3734;HTU21D;1882;52.256;8.874;2024-03-08T01:23:44;0.60;99.90
3734;HTU21D;1882;52.256;8.874;2024-03-08T01:26:11;0.60;99.90
3734;HTU21D;1882;52.256;8.874;2024-03-08T01:28:38;0.60;99.90
3734;HTU21D;1882;52.256;8.874;2024-03-08T01:31:05;0.50;99.90
3734;HTU21D;1882;52.256;8.874;2024-03-08T01:33:32;0.50;99.90
3734;HTU21D;1882;52.256;8.874;2024-03-08T01:35:59;0.50;99.90
3734;HTU21D;1882;52.256;8.874;2024-03-08T01:38:26;0.50;99.90
3734;HTU21D;1882;52.256;8.874;2024-03-08T01:40:53;0.50;99.90
3734;HTU21D;1882;52.256;8.874;2024-03-08T01:43:23;0.50;99.90
3734;HTU21D;1882;52.256;8.874;2024-03-08T01:45:51;0.50;99.90
3734;HTU21D;1882;52.256;8.874;2024-03-08T01:48:19;0.60;99.90
3734;HTU21D;1882;52.256;8.874;2024-03-08T01:50:49;0.60;99.90
3734;HTU21D;1882;52.256;8.874;2024-03-08T01:53:18;0.50;99.90
3734;HTU21D;1882;52.256;8.874;2024-03-08T01:55:47;0.60;99.90
3734;HTU21D;1882;52.256;8.874;2024-03-08T01:58:15;0.70;99.90
3734;HTU21D;1882;52.256;8.874;2024-03-08T02:00:44;0.70;99.90
3734;HTU21D;1882;52.256;8.874;2024-03-08T02:03:11;0.70;99.90
3734;HTU21D;1882;52.256;8.874;2024-03-08T02:05:40;0.80;99.90
3734;HTU21D;1882;52.256;8.874;2024-03-08T02:08:08;0.70;99.90
3734;HTU21D;1882;52.256;8.874;2024-03-08T02:10:43;0.70;99.90
3734;HTU21D;1882;52.256;8.874;2024-03-08T02:13:10;0.70;99.90
3734;HTU21D;1882;52.256;8.874;2024-03-08T02:15:53;0.70;99.90
3734;HTU21D;1882;52.256;8.874;2024-03-08T02:18:21;0.70;99.90
3734;HTU21D;1882;52.256;8.874;2024-03-08T02:20:52;0.60;99.90
3734;HTU21D;1882;52.256;8.874;2024-03-08T02:23:19;0.60;99.90
3734;HTU21D;1882;52.256;8.874;2024-03-08T02:25:50;0.60;99.90
3734;HTU21D;1882;52.256;8.874;2024-03-08T02:28:17;0.60;99.90
3734;HTU21D;1882;52.256;8.874;2024-03-08T02:30:47;0.50;99.90
3734;HTU21D;1882;52.256;8.874;2024-03-08T02:33:15;0.40;99.90
3734;HTU21D;1882;52.256;8.874;2024-03-08T02:35:47;0.40;99.90
3734;HTU21D;1882;52.256;8.874;2024-03-08T02:38:23;0.30;99.90
3734;HTU21D;1882;52.256;8.874;2024-03-08T02:40:53;0.20;99.90
3734;HTU21D;1882;52.256;8.874;2024-03-08T02:43:21;0.20;99.90
3734;HTU21D;1882;52.256;8.874;2024-03-08T02:45:52;0.20;99.90
3734;HTU21D;1882;52.256;8.874;2024-03-08T02:48:21;0.20;99.90
3734;HTU21D;1882;52.256;8.874;2024-03-08T02:50:49;0.20;99.90
3734;HTU21D;1882;52.256;8.874;2024-03-08T02:53:18;0.20;99.90
3734;HTU21D;1882;52.256;8.874;2024-03-08T02:55:46;0.10;99.90
3734;HTU21D;1882;52.256;8.874;2024-03-08T02:58:13;0.10;99.90
3734;HTU21D;1882;52.256;8.874;2024-03-08T03:00:41;0.10;99.90
3734;HTU21D;1882;52.256;8.874;2024-03-08T03:03:10;0.00;99.90
3734;HTU21D;1882;52.256;8.874;2024-03-08T03:05:37;0.00;99.90
3734;HTU21D;1882;52.256;8.874;2024-03-08T03:08:04;0.00;99.90
3734;HTU21D;1882;52.256;8.874;2024-03-08T03:10:36;0.10;99.90
3734;HTU21D;1882;52.256;8.874;2024-03-08T03:13:03;0.10;99.90
3734;HTU21D;1882;52.256;8.874;2024-03-08T03:15:31;0.00;99.90
3734;HTU21D;1882;52.256;8.874;2024-03-08T03:17:58;0.00;99.90
3734;HTU21D;1882;52.256;8.874;2024-03-08T03:20:25;0.00;99.90
3734;HTU21D;1882;52.256;8.874;2024-03-08T03:23:00;0.00;99.90
3734;HTU21D;1882;52.256;8.874;2024-03-08T03:25:29;0.00;99.90
3734;HTU21D;1882;52.256;8.874;2024-03-08T03:28:01;0.00;99.90
3734;HTU21D;1882;52.256;8.874;2024-03-08T03:30:29;0.00;99.90
3734;HTU21D;1882;52.256;8.874;2024-03-08T03:33:00;-0.10;99.90
3734;HTU21D;1882;52.256;8.874;2024-03-08T03:35:30;-0.10;99.90
3734;HTU21D;1882;52.256;8.874;2024-03-08T03:37:57;-0.10;99.90
3734;HTU21D;1882;52.256;8.874;2024-03-08T03:40:36;-0.10;99.90
3734;HTU21D;1882;52.256;8.874;2024-03-08T03:43:03;-0.10;99.90
3734;HTU21D;1882;52.256;8.874;2024-03-08T03:45:31;-0.10;99.90
3734;HTU21D;1882;52.256;8.874;2024-03-08T03:48:04;-0.10;99.90
3734;HTU21D;1882;52.256;8.874;2024-03-08T03:50:34;-0.10;99.90
3734;HTU21D;1882;52.256;8.874;2024-03-08T03:53:02;-0.10;99.90
3734;HTU21D;1882;52.256;8.874;2024-03-08T03:55:30;-0.10;99.90
3734;HTU21D;1882;52.256;8.874;2024-03-08T03:57:56;-0.10;99.90
3734;HTU21D;1882;52.256;8.874;2024-03-08T04:00:26;-0.10;99.90
3734;HTU21D;1882;52.256;8.874;2024-03-08T04:02:54;-0.10;99.90
3734;HTU21D;1882;52.256;8.874;2024-03-08T04:05:27;-0.20;99.90
3734;HTU21D;1882;52.256;8.874;2024-03-08T04:07:54;-0.10;99.90
3734;HTU21D;1882;52.256;8.874;2024-03-08T04:10:21;-0.10;99.90
3734;HTU21D;1882;52.256;8.874;2024-03-08T04:12:48;-0.20;99.90
3734;HTU21D;1882;52.256;8.874;2024-03-08T04:15:15;-0.20;99.90
3734;HTU21D;1882;52.256;8.874;2024-03-08T04:17:42;-0.30;99.90
3734;HTU21D;1882;52.256;8.874;2024-03-08T04:20:09;-0.30;99.90
3734;HTU21D;1882;52.256;8.874;2024-03-08T04:22:37;-0.40;99.90
3734;HTU21D;1882;52.256;8.874;2024-03-08T04:25:06;-0.40;99.90
3734;HTU21D;1882;52.256;8.874;2024-03-08T04:27:33;-0.40;99.90
3734;HTU21D;1882;52.256;8.874;2024-03-08T04:30:02;-0.50;99.90
3734;HTU21D;1882;52.256;8.874;2024-03-08T04:32:29;-0.50;99.90
3734;HTU21D;1882;52.256;8.874;2024-03-08T04:34:56;-0.60;99.90
3734;HTU21D;1882;52.256;8.874;2024-03-08T04:37:24;-0.60;99.90
3734;HTU21D;1882;52.256;8.874;2024-03-08T04:39:51;-0.50;99.90
3734;HTU21D;1882;52.256;8.874;2024-03-08T04:42:19;-0.50;99.90
3734;HTU21D;1882;52.256;8.874;2024-03-08T04:44:46;-0.50;99.90
3734;HTU21D;1882;52.256;8.874;2024-03-08T04:47:12;-0.60;99.90
3734;HTU21D;1882;52.256;8.874;2024-03-08T04:49:39;-0.50;99.90
3734;HTU21D;1882;52.256;8.874;2024-03-08T04:52:06;-0.50;99.90
3734;HTU21D;1882;52.256;8.874;2024-03-08T04:54:34;-0.50;99.90
3734;HTU21D;1882;52.256;8.874;2024-03-08T04:57:01;-0.60;99.90
3734;HTU21D;1882;52.256;8.874;2024-03-08T04:59:32;-0.60;99.90
3734;HTU21D;1882;52.256;8.874;2024-03-08T05:01:59;-0.70;99.90
3734;HTU21D;1882;52.256;8.874;2024-03-08T05:04:26;-0.70;99.90
3734;HTU21D;1882;52.256;8.874;2024-03-08T05:06:53;-0.70;99.90
3734;HTU21D;1882;52.256;8.874;2024-03-08T05:09:21;-0.80;99.90
3734;HTU21D;1882;52.256;8.874;2024-03-08T05:11:48;-0.80;99.90
3734;HTU21D;1882;52.256;8.874;2024-03-08T05:14:15;-0.80;99.90
3734;HTU21D;1882;52.256;8.874;2024-03-08T05:16:47;-0.70;99.90
3734;HTU21D;1882;52.256;8.874;2024-03-08T05:19:19;-0.70;99.90
3734;HTU21D;1882;52.256;8.874;2024-03-08T05:21:47;-0.70;99.90
3734;HTU21D;1882;52.256;8.874;2024-03-08T05:24:15;-0.70;99.90
3734;HTU21D;1882;52.256;8.874;2024-03-08T05:26:43;-0.70;99.90
3734;HTU21D;1882;52.256;8.874;2024-03-08T05:29:10;-0.70;99.90
3734;HTU21D;1882;52.256;8.874;2024-03-08T05:31:50;-0.70;99.90
3734;HTU21D;1882;52.256;8.874;2024-03-08T05:34:19;-0.70;99.90
3734;HTU21D;1882;52.256;8.874;2024-03-08T05:36:46;-0.70;99.90
3734;HTU21D;1882;52.256;8.874;2024-03-08T05:39:13;-0.70;99.90
3734;HTU21D;1882;52.256;8.874;2024-03-08T05:41:41;-0.70;99.90
3734;HTU21D;1882;52.256;8.874;2024-03-08T05:44:09;-0.70;99.90
3734;HTU21D;1882;52.256;8.874;2024-03-08T05:46:36;-0.70;99.90
3734;HTU21D;1882;52.256;8.874;2024-03-08T05:49:04;-0.70;99.90
3734;HTU21D;1882;52.256;8.874;2024-03-08T05:51:38;-0.70;99.90
3734;HTU21D;1882;52.256;8.874;2024-03-08T05:54:07;-0.70;99.90
3734;HTU21D;1882;52.256;8.874;2024-03-08T05:56:41;-0.70;99.90
3734;HTU21D;1882;52.256;8.874;2024-03-08T05:59:12;-0.70;99.90
3734;HTU21D;1882;52.256;8.874;2024-03-08T06:01:40;-0.70;99.90
3734;HTU21D;1882;52.256;8.874;2024-03-08T06:04:09;-0.70;99.90
3734;HTU21D;1882;52.256;8.874;2024-03-08T06:06:39;-0.70;99.90
3734;HTU21D;1882;52.256;8.874;2024-03-08T06:09:07;-0.60;99.90
3734;HTU21D;1882;52.256;8.874;2024-03-08T06:11:39;-0.60;99.90
3734;HTU21D;1882;52.256;8.874;2024-03-08T06:14:06;-0.60;99.90
3734;HTU21D;1882;52.256;8.874;2024-03-08T06:16:33;-0.60;99.90
3734;HTU21D;1882;52.256;8.874;2024-03-08T06:19:02;-0.50;99.90
3734;HTU21D;1882;52.256;8.874;2024-03-08T06:21:30;-0.50;99.90
3734;HTU21D;1882;52.256;8.874;2024-03-08T06:23:59;-0.40;99.90
3734;HTU21D;1882;52.256;8.874;2024-03-08T06:26:26;-0.30;99.90
3734;HTU21D;1882;52.256;8.874;2024-03-08T06:28:57;-0.20;99.90
3734;HTU21D;1882;52.256;8.874;2024-03-08T06:31:24;-0.20;99.90
3734;HTU21D;1882;52.256;8.874;2024-03-08T06:33:51;-0.10;99.90
3734;HTU21D;1882;52.256;8.874;2024-03-08T06:36:22;0.00;99.90
3734;HTU21D;1882;52.256;8.874;2024-03-08T06:38:49;0.00;99.90
3734;HTU21D;1882;52.256;8.874;2024-03-08T06:41:16;0.10;99.90
3734;HTU21D;1882;52.256;8.874;2024-03-08T06:43:44;0.20;99.90
3734;HTU21D;1882;52.256;8.874;2024-03-08T06:46:12;0.30;99.90
3734;HTU21D;1882;52.256;8.874;2024-03-08T06:48:39;0.40;99.90
3734;HTU21D;1882;52.256;8.874;2024-03-08T06:51:07;0.50;99.90
3734;HTU21D;1882;52.256;8.874;2024-03-08T06:53:34;0.50;99.90
3734;HTU21D;1882;52.256;8.874;2024-03-08T06:56:02;0.60;99.90
3734;HTU21D;1882;52.256;8.874;2024-03-08T06:58:29;0.70;99.90
3734;HTU21D;1882;52.256;8.874;2024-03-08T07:00:56;0.80;99.90
3734;HTU21D;1882;52.256;8.874;2024-03-08T07:03:27;0.90;99.90
3734;HTU21D;1882;52.256;8.874;2024-03-08T07:05:56;1.00;99.90
3734;HTU21D;1882;52.256;8.874;2024-03-08T07:08:26;1.10;99.90
3734;HTU21D;1882;52.256;8.874;2024-03-08T07:10:54;1.20;99.90
3734;HTU21D;1882;52.256;8.874;2024-03-08T07:13:21;1.20;99.90
3734;HTU21D;1882;52.256;8.874;2024-03-08T07:15:48;1.30;99.90
3734;HTU21D;1882;52.256;8.874;2024-03-08T07:18:15;1.40;99.90
3734;HTU21D;1882;52.256;8.874;2024-03-08T07:20:42;1.50;99.90
3734;HTU21D;1882;52.256;8.874;2024-03-08T07:23:10;1.50;99.90
3734;HTU21D;1882;52.256;8.874;2024-03-08T07:25:37;1.60;99.90
3734;HTU21D;1882;52.256;8.874;2024-03-08T07:28:06;1.70;99.90
3734;HTU21D;1882;52.256;8.874;2024-03-08T07:30:38;1.70;99.90
3734;HTU21D;1882;52.256;8.874;2024-03-08T07:33:12;1.80;99.90
3734;HTU21D;1882;52.256;8.874;2024-03-08T07:35:40;1.80;99.90
3734;HTU21D;1882;52.256;8.874;2024-03-08T07:38:08;1.90;99.90
3734;HTU21D;1882;52.256;8.874;2024-03-08T07:40:39;1.90;99.90
3734;HTU21D;1882;52.256;8.874;2024-03-08T07:43:13;2.00;99.90
3734;HTU21D;1882;52.256;8.874;2024-03-08T07:45:40;2.10;99.90
3734;HTU21D;1882;52.256;8.874;2024-03-08T07:48:07;2.10;99.90
3734;HTU21D;1882;52.256;8.874;2024-03-08T07:50:38;2.10;99.90
3734;HTU21D;1882;52.256;8.874;2024-03-08T07:53:08;2.20;99.90
3734;HTU21D;1882;52.256;8.874;2024-03-08T07:55:36;2.20;99.90
3734;HTU21D;1882;52.256;8.874;2024-03-08T07:58:03;2.40;99.90
3734;HTU21D;1882;52.256;8.874;2024-03-08T08:00:30;2.40;99.90
3734;HTU21D;1882;52.256;8.874;2024-03-08T08:03:00;2.40;99.90
3734;HTU21D;1882;52.256;8.874;2024-03-08T08:05:28;2.50;99.90
3734;HTU21D;1882;52.256;8.874;2024-03-08T08:07:55;2.60;99.90
3734;HTU21D;1882;52.256;8.874;2024-03-08T08:10:23;2.60;99.90
3734;HTU21D;1882;52.256;8.874;2024-03-08T08:12:52;2.70;99.90
3734;HTU21D;1882;52.256;8.874;2024-03-08T08:15:20;2.80;99.90
3734;HTU21D;1882;52.256;8.874;2024-03-08T08:17:47;2.80;99.90
3734;HTU21D;1882;52.256;8.874;2024-03-08T08:20:14;2.80;99.90
3734;HTU21D;1882;52.256;8.874;2024-03-08T08:22:42;2.90;99.90
3734;HTU21D;1882;52.256;8.874;2024-03-08T08:25:12;2.90;99.90
3734;HTU21D;1882;52.256;8.874;2024-03-08T08:27:40;3.00;99.90
3734;HTU21D;1882;52.256;8.874;2024-03-08T08:30:09;3.00;99.90
3734;HTU21D;1882;52.256;8.874;2024-03-08T08:32:38;3.10;99.90
3734;HTU21D;1882;52.256;8.874;2024-03-08T08:35:08;3.10;99.90
3734;HTU21D;1882;52.256;8.874;2024-03-08T08:37:38;3.10;99.90
3734;HTU21D;1882;52.256;8.874;2024-03-08T08:40:06;3.30;99.90
3734;HTU21D;1882;52.256;8.874;2024-03-08T08:42:37;3.40;99.90
3734;HTU21D;1882;52.256;8.874;2024-03-08T08:45:08;3.50;99.90
3734;HTU21D;1882;52.256;8.874;2024-03-08T08:47:46;3.60;99.90
3734;HTU21D;1882;52.256;8.874;2024-03-08T08:50:13;3.60;99.90
3734;HTU21D;1882;52.256;8.874;2024-03-08T08:52:40;3.60;99.90
3734;HTU21D;1882;52.256;8.874;2024-03-08T08:55:10;3.70;99.90
3734;HTU21D;1882;52.256;8.874;2024-03-08T08:57:42;3.80;99.90
3734;HTU21D;1882;52.256;8.874;2024-03-08T09:00:09;3.90;99.90
3734;HTU21D;1882;52.256;8.874;2024-03-08T09:02:42;4.00;99.90
3734;HTU21D;1882;52.256;8.874;2024-03-08T09:05:09;3.90;99.90
3734;HTU21D;1882;52.256;8.874;2024-03-08T09:07:36;3.90;99.90
3734;HTU21D;1882;52.256;8.874;2024-03-08T09:10:04;3.90;99.90
3734;HTU21D;1882;52.256;8.874;2024-03-08T09:12:34;4.00;99.90
3734;HTU21D;1882;52.256;8.874;2024-03-08T09:15:01;4.10;99.90
3734;HTU21D;1882;52.256;8.874;2024-03-08T09:17:28;4.10;99.90
3734;HTU21D;1882;52.256;8.874;2024-03-08T09:19:55;4.10;99.90
3734;HTU21D;1882;52.256;8.874;2024-03-08T09:22:24;4.20;99.90
3734;HTU21D;1882;52.256;8.874;2024-03-08T09:24:52;4.30;99.90
3734;HTU21D;1882;52.256;8.874;2024-03-08T09:27:19;4.30;99.90
3734;HTU21D;1882;52.256;8.874;2024-03-08T09:29:46;4.40;99.90
3734;HTU21D;1882;52.256;8.874;2024-03-08T09:32:13;4.60;99.90
3734;HTU21D;1882;52.256;8.874;2024-03-08T09:34:40;4.60;99.90
3734;HTU21D;1882;52.256;8.874;2024-03-08T09:37:07;4.70;99.90
3734;HTU21D;1882;52.256;8.874;2024-03-08T09:39:35;4.80;99.90
3734;HTU21D;1882;52.256;8.874;2024-03-08T09:42:02;4.90;99.90
3734;HTU21D;1882;52.256;8.874;2024-03-08T09:44:30;4.90;99.40
3734;HTU21D;1882;52.256;8.874;2024-03-08T09:46:58;5.00;99.60
3734;HTU21D;1882;52.256;8.874;2024-03-08T09:49:26;5.10;96.10
3734;HTU21D;1882;52.256;8.874;2024-03-08T09:51:53;5.20;96.30
3734;HTU21D;1882;52.256;8.874;2024-03-08T09:54:20;5.20;95.10
3734;HTU21D;1882;52.256;8.874;2024-03-08T09:56:52;5.40;93.70
3734;HTU21D;1882;52.256;8.874;2024-03-08T09:59:19;5.40;80.30
3734;HTU21D;1882;52.256;8.874;2024-03-08T10:01:46;5.50;62.40
3734;HTU21D;1882;52.256;8.874;2024-03-08T10:04:13;5.60;64.60
3734;HTU21D;1882;52.256;8.874;2024-03-08T10:06:40;5.70;63.70
3734;HTU21D;1882;52.256;8.874;2024-03-08T10:09:07;5.70;54.30
3734;HTU21D;1882;52.256;8.874;2024-03-08T10:11:34;5.80;56.10
3734;HTU21D;1882;52.256;8.874;2024-03-08T10:14:01;5.80;53.50
3734;HTU21D;1882;52.256;8.874;2024-03-08T10:16:28;5.90;52.10
3734;HTU21D;1882;52.256;8.874;2024-03-08T10:18:58;6.00;53.40
3734;HTU21D;1882;52.256;8.874;2024-03-08T10:21:27;6.00;52.10
3734;HTU21D;1882;52.256;8.874;2024-03-08T10:23:56;6.10;51.00
3734;HTU21D;1882;52.256;8.874;2024-03-08T10:26:23;6.10;50.10
3734;HTU21D;1882;52.256;8.874;2024-03-08T10:28:51;6.10;51.10
3734;HTU21D;1882;52.256;8.874;2024-03-08T10:31:20;6.20;52.30
3734;HTU21D;1882;52.256;8.874;2024-03-08T10:33:47;6.20;49.50
3734;HTU21D;1882;52.256;8.874;2024-03-08T10:36:15;6.30;46.90
3734;HTU21D;1882;52.256;8.874;2024-03-08T10:38:43;6.30;51.20
3734;HTU21D;1882;52.256;8.874;2024-03-08T10:41:15;6.40;49.70
3734;HTU21D;1882;52.256;8.874;2024-03-08T10:44:23;6.40;50.30
3734;HTU21D;1882;52.256;8.874;2024-03-08T10:49:30;6.50;48.80
3734;HTU21D;1882;52.256;8.874;2024-03-08T10:51:57;6.50;51.50
3734;HTU21D;1882;52.256;8.874;2024-03-08T10:54:26;6.60;51.00
3734;HTU21D;1882;52.256;8.874;2024-03-08T10:56:53;6.70;49.30
3734;HTU21D;1882;52.256;8.874;2024-03-08T10:59:22;6.70;47.90
3734;HTU21D;1882;52.256;8.874;2024-03-08T11:01:50;6.70;48.30
3734;HTU21D;1882;52.256;8.874;2024-03-08T11:04:17;6.80;49.30
3734;HTU21D;1882;52.256;8.874;2024-03-08T11:06:50;6.70;46.80
3734;HTU21D;1882;52.256;8.874;2024-03-08T11:09:35;6.70;50.10
3734;HTU21D;1882;52.256;8.874;2024-03-08T11:12:27;6.80;48.60
3734;HTU21D;1882;52.256;8.874;2024-03-08T11:15:00;6.90;49.60
3734;HTU21D;1882;52.256;8.874;2024-03-08T11:20:18;7.00;48.40
3734;HTU21D;1882;52.256;8.874;2024-03-08T11:22:50;7.00;49.20
3734;HTU21D;1882;52.256;8.874;2024-03-08T11:25:41;7.00;48.80
3734;HTU21D;1882;52.256;8.874;2024-03-08T11:28:17;7.10;50.50
3734;HTU21D;1882;52.256;8.874;2024-03-08T11:30:47;7.10;52.10
3734;HTU21D;1882;52.256;8.874;2024-03-08T11:33:35;7.10;49.80
3734;HTU21D;1882;52.256;8.874;2024-03-08T11:36:19;7.20;49.00
3734;HTU21D;1882;52.256;8.874;2024-03-08T11:38:49;7.20;49.40
3734;HTU21D;1882;52.256;8.874;2024-03-08T11:41:20;7.30;48.70
3734;HTU21D;1882;52.256;8.874;2024-03-08T11:43:48;7.30;48.00
3734;HTU21D;1882;52.256;8.874;2024-03-08T11:46:17;7.30;47.50
3734;HTU21D;1882;52.256;8.874;2024-03-08T11:48:47;7.30;47.00
3734;HTU21D;1882;52.256;8.874;2024-03-08T11:51:15;7.30;47.60
3734;HTU21D;1882;52.256;8.874;2024-03-08T11:53:45;7.30;48.00
3734;HTU21D;1882;52.256;8.874;2024-03-08T11:56:14;7.30;46.30
3734;HTU21D;1882;52.256;8.874;2024-03-08T11:58:53;7.30;48.60
3734;HTU21D;1882;52.256;8.874;2024-03-08T12:01:20;7.40;49.20
3734;HTU21D;1882;52.256;8.874;2024-03-08T12:03:53;7.40;47.60
3734;HTU21D;1882;52.256;8.874;2024-03-08T12:06:20;7.40;47.20
3734;HTU21D;1882;52.256;8.874;2024-03-08T12:08:47;7.50;47.40
3734;HTU21D;1882;52.256;8.874;2024-03-08T12:11:18;7.50;47.30
3734;HTU21D;1882;52.256;8.874;2024-03-08T12:13:50;7.50;45.60
3734;HTU21D;1882;52.256;8.874;2024-03-08T12:16:18;7.50;46.70
3734;HTU21D;1882;52.256;8.874;2024-03-08T12:18:48;7.50;45.10
3734;HTU21D;1882;52.256;8.874;2024-03-08T12:21:15;7.50;47.30
3734;HTU21D;1882;52.256;8.874;2024-03-08T12:23:46;7.50;46.30
3734;HTU21D;1882;52.256;8.874;2024-03-08T12:26:24;7.50;48.00
3734;HTU21D;1882;52.256;8.874;2024-03-08T12:28:53;7.50;47.70
3734;HTU21D;1882;52.256;8.874;2024-03-08T12:31:21;7.60;46.10
3734;HTU21D;1882;52.256;8.874;2024-03-08T12:33:54;7.60;44.60
3734;HTU21D;1882;52.256;8.874;2024-03-08T12:36:25;7.60;46.80
3734;HTU21D;1882;52.256;8.874;2024-03-08T12:38:53;7.60;45.70
3734;HTU21D;1882;52.256;8.874;2024-03-08T12:41:23;7.60;45.00
3734;HTU21D;1882;52.256;8.874;2024-03-08T12:43:50;7.50;45.10
3734;HTU21D;1882;52.256;8.874;2024-03-08T12:46:19;7.50;46.00
3734;HTU21D;1882;52.256;8.874;2024-03-08T12:48:49;7.50;46.70
3734;HTU21D;1882;52.256;8.874;2024-03-08T12:51:17;7.60;48.10
3734;HTU21D;1882;52.256;8.874;2024-03-08T12:53:45;7.70;47.20
3734;HTU21D;1882;52.256;8.874;2024-03-08T12:56:32;7.70;45.80
3734;HTU21D;1882;52.256;8.874;2024-03-08T12:59:01;7.70;47.20
3734;HTU21D;1882;52.256;8.874;2024-03-08T13:01:28;7.70;45.30
3734;HTU21D;1882;52.256;8.874;2024-03-08T13:03:55;7.70;45.10
3734;HTU21D;1882;52.256;8.874;2024-03-08T13:06:22;7.70;46.70
3734;HTU21D;1882;52.256;8.874;2024-03-08T13:08:51;7.70;47.00
3734;HTU21D;1882;52.256;8.874;2024-03-08T13:11:22;7.70;47.60
3734;HTU21D;1882;52.256;8.874;2024-03-08T13:13:51;7.80;46.60
3734;HTU21D;1882;52.256;8.874;2024-03-08T13:16:22;7.80;47.70
3734;HTU21D;1882;52.256;8.874;2024-03-08T13:18:52;7.90;45.80
3734;HTU21D;1882;52.256;8.874;2024-03-08T13:21:24;7.80;46.60
3734;HTU21D;1882;52.256;8.874;2024-03-08T13:23:52;7.80;46.50
3734;HTU21D;1882;52.256;8.874;2024-03-08T13:26:23;7.70;46.20
3734;HTU21D;1882;52.256;8.874;2024-03-08T13:28:55;7.70;46.70
3734;HTU21D;1882;52.256;8.874;2024-03-08T13:31:24;7.80;47.40
3734;HTU21D;1882;52.256;8.874;2024-03-08T13:33:54;7.80;47.20
3734;HTU21D;1882;52.256;8.874;2024-03-08T13:36:25;7.90;46.40
3734;HTU21D;1882;52.256;8.874;2024-03-08T13:39:02;7.90;48.00
3734;HTU21D;1882;52.256;8.874;2024-03-08T13:41:45;8.00;45.70
3734;HTU21D;1882;52.256;8.874;2024-03-08T13:44:16;8.00;47.90
3734;HTU21D;1882;52.256;8.874;2024-03-08T13:46:47;8.10;47.30
3734;HTU21D;1882;52.256;8.874;2024-03-08T13:49:19;8.20;46.20
3734;HTU21D;1882;52.256;8.874;2024-03-08T13:51:46;8.20;47.80
3734;HTU21D;1882;52.256;8.874;2024-03-08T13:54:13;8.20;47.60
3734;HTU21D;1882;52.256;8.874;2024-03-08T13:56:40;8.30;46.50
3734;HTU21D;1882;52.256;8.874;2024-03-08T13:59:07;8.20;46.00
3734;HTU21D;1882;52.256;8.874;2024-03-08T14:01:36;8.20;46.60
3734;HTU21D;1882;52.256;8.874;2024-03-08T14:04:03;8.20;47.80
3734;HTU21D;1882;52.256;8.874;2024-03-08T14:06:30;8.20;47.30
3734;HTU21D;1882;52.256;8.874;2024-03-08T14:08:57;8.20;46.80
3734;HTU21D;1882;52.256;8.874;2024-03-08T14:11:24;8.20;47.80
3734;HTU21D;1882;52.256;8.874;2024-03-08T14:13:51;8.20;48.50
3734;HTU21D;1882;52.256;8.874;2024-03-08T14:16:19;8.30;48.60
3734;HTU21D;1882;52.256;8.874;2024-03-08T14:18:46;8.30;48.30
3734;HTU21D;1882;52.256;8.874;2024-03-08T14:21:13;8.30;47.30
3734;HTU21D;1882;52.256;8.874;2024-03-08T14:23:42;8.30;46.90
3734;HTU21D;1882;52.256;8.874;2024-03-08T14:26:10;8.20;48.50
3734;HTU21D;1882;52.256;8.874;2024-03-08T14:28:41;8.20;47.80
3734;HTU21D;1882;52.256;8.874;2024-03-08T14:31:08;8.20;48.00
3734;HTU21D;1882;52.256;8.874;2024-03-08T14:33:44;8.20;50.20
3734;HTU21D;1882;52.256;8.874;2024-03-08T14:36:16;8.20;48.30
3734;HTU21D;1882;52.256;8.874;2024-03-08T14:38:52;8.20;47.80
3734;HTU21D;1882;52.256;8.874;2024-03-08T14:41:21;8.20;48.50
3734;HTU21D;1882;52.256;8.874;2024-03-08T14:43:51;8.20;48.20
3734;HTU21D;1882;52.256;8.874;2024-03-08T14:46:21;8.20;49.30
3734;HTU21D;1882;52.256;8.874;2024-03-08T14:48:50;8.20;48.40
3734;HTU21D;1882;52.256;8.874;2024-03-08T14:51:20;8.20;48.90
3734;HTU21D;1882;52.256;8.874;2024-03-08T14:53:49;8.20;49.40
3734;HTU21D;1882;52.256;8.874;2024-03-08T14:56:16;8.20;48.20
3734;HTU21D;1882;52.256;8.874;2024-03-08T14:58:44;8.20;48.70
3734;HTU21D;1882;52.256;8.874;2024-03-08T15:01:12;8.30;47.90
3734;HTU21D;1882;52.256;8.874;2024-03-08T15:03:43;8.30;48.70
3734;HTU21D;1882;52.256;8.874;2024-03-08T15:06:10;8.30;49.10
3734;HTU21D;1882;52.256;8.874;2024-03-08T15:08:39;8.30;49.30
3734;HTU21D;1882;52.256;8.874;2024-03-08T15:11:06;8.30;49.50
3734;HTU21D;1882;52.256;8.874;2024-03-08T15:13:33;8.30;49.70
3734;HTU21D;1882;52.256;8.874;2024-03-08T15:16:06;8.30;50.40
3734;HTU21D;1882;52.256;8.874;2024-03-08T15:18:34;8.30;48.40
3734;HTU21D;1882;52.256;8.874;2024-03-08T15:21:06;8.30;48.80
3734;HTU21D;1882;52.256;8.874;2024-03-08T15:23:34;8.30;49.30
3734;HTU21D;1882;52.256;8.874;2024-03-08T15:26:02;8.30;48.30
3734;HTU21D;1882;52.256;8.874;2024-03-08T15:28:30;8.30;48.70
3734;HTU21D;1882;52.256;8.874;2024-03-08T15:31:06;8.20;48.60
3734;HTU21D;1882;52.256;8.874;2024-03-08T15:33:34;8.20;48.70
3734;HTU21D;1882;52.256;8.874;2024-03-08T15:36:01;8.20;50.20
3734;HTU21D;1882;52.256;8.874;2024-03-08T15:38:35;8.20;49.60
3734;HTU21D;1882;52.256;8.874;2024-03-08T15:41:06;8.20;49.90
3734;HTU21D;1882;52.256;8.874;2024-03-08T15:43:40;8.20;49.70
3734;HTU21D;1882;52.256;8.874;2024-03-08T15:46:09;8.10;49.40
3734;HTU21D;1882;52.256;8.874;2024-03-08T15:48:37;8.10;49.60
3734;HTU21D;1882;52.256;8.874;2024-03-08T15:51:05;8.10;50.10
3734;HTU21D;1882;52.256;8.874;2024-03-08T15:53:33;8.00;49.50
3734;HTU21D;1882;52.256;8.874;2024-03-08T15:56:05;8.00;50.80
3734;HTU21D;1882;52.256;8.874;2024-03-08T15:58:34;8.00;50.80
3734;HTU21D;1882;52.256;8.874;2024-03-08T16:01:05;7.90;50.50
3734;HTU21D;1882;52.256;8.874;2024-03-08T16:03:36;7.90;50.00
3734;HTU21D;1882;52.256;8.874;2024-03-08T16:06:03;7.90;50.60
3734;HTU21D;1882;52.256;8.874;2024-03-08T16:08:33;7.90;51.80
3734;HTU21D;1882;52.256;8.874;2024-03-08T16:11:03;7.80;52.10
3734;HTU21D;1882;52.256;8.874;2024-03-08T16:13:34;7.70;51.80
3734;HTU21D;1882;52.256;8.874;2024-03-08T16:16:10;7.80;51.40